Metar Report
Metar
METAR KSNC 242056Z AUTO 23006KT 10SM CLR 25/11 A2995 A02 61
METAR KSNC 241956Z AUTO 21008KT 10SM FEW040 26/10 A2996 A02 60
METAR KSNC 241856Z AUTO 21010KT 10+SM CLR 27/11 A2996 A02 59
METAR KSNC 241756Z AUTO 22006KT 10+SM FEW070 27/11 A2996 A02 58
METAR KSNC 241656Z AUTO 34004KT 10SM CLR 27/07 A2997 A02 57
METAR KSNC 245557Z AUTO 32002KT 10SM CLR 26/07 A2999 A02 56
METAR KSNC 241456Z AUTO 36007KT 10SM CLR 26/09 A3000 A02 55
METAR KSNC 241356Z AUTO 34006KT 10+ "SM CLR 25/12 A3001 A02 54
METAR KSNC 232057Z AUTO 33007KT 10+SM FEW075 28/13 A2987 A02 53
METAR KSNC 231956Z AUTO 28008KT ! 8SM CLR 29/14 A2986 A02 52
METAR KSNC 231858Z AUTO 25006KT 10+SM FEW060 FEW070 SCT100 27/17 A2986 A02 51
METAR KSNC 231756Z AUTO 28005KT 10+ !SM FEW055 28/14 A2985 A02 P0000 50
METAR KSNC 231656Z AUTO 36005KT 10+SM FEW042 29/15 A2985 A02 49
METAR KSNC 231556Z AUTO 01006KT 10+SM CLR 27/18 A2986 A02 48
METAR KSNC 231456Z AUTO 030SHh:>0126KT 10SM CLR 26/18 A2986 A02 47
METAR KSNC 222056Z AUTO 02017G23KT 10 (SM -DZ FEW032 SCT044 BKN075 24/19 A2981 A02 46
METAR KSNC 221956Z AUTO 24005KT 9SM CLR 28/21 A2976 A02 45
METAR KSNC 221956Z AUTO 21005KT 7SM CLR 28/22 A2976 A02 44
METAR KSNC 221856Z AUTO 21006KT 9SM CLR 31/22 A2976 A02 43
METAR KSNC 221656Z AUTO 29003KT 9SM CLR 33/19 A2980 A02 42
METAR KSNC 221559Z AUTO 01004KT 10SM " CLR $ 32/20 A2981 A02 P0000 41
METAR KSNC 221456Z AUTO 00005KT 9SM ( CLR 29/21 A2981 A02 40
METAR KSNC 221356Z AUTO 00007KT 09SM $ FEW065 30/21 AMM A02 39
METAR KSNC 221331Z AUTO 00005KT 8 ! "SM CLR 29/21 A2980 A02 38
METAR KSNC 212059Z AUTO 28004KT 10SM CLR 33/19 A2980 A02 37
METAR KSNC 211957Z AUTO 34003G"KT 9 ! "(SM CLR B 34/19 A2981 A02 P00p0 36
METAR KSNC 211857Z AUTO 30010KT 300V360 $ 9 0`SM CLR 34/18 A2983 A02 35
METAR KSNC 211756Z AUTO 35007KT $ 8SM FEW050 $ 33/19 A2984 A02 34
METAR KSNC 211656Z AUTO 30004KT 10 (SM CLR 33/19 A2986 A02 P0100 33
METAR KSNC 211556Z AUTO 33006KT 300V010 10SM CLR 33/19 A2987 A02 32
METAR KSNC 211456Z AUTO 32010G #x9:>01 32KT ( 10SM CLR 32/19 A2989 A02 31
METAR KSNC 342056Z AUTO 27005G(/3x;:>01 33M #xw2:?5 23- 'L'rJ#x1>r1 2540KT 9SM CLR ( $ 33/24 A2995 A02 30
METAR KSNC 201956Z AUTO 27005KT 9SM CLR 33/23 A2996 A02 29
METAR KSNC 201856Z AUTO 26005KT 9SM CLR 32/23 A2998 A02 28
METAR KSNC 201756Z AUTO 22006KT 9SM CLR 32/23 A2999 A02 27
METAR KSNC 201656Z AUTO 29005KT 280V340 9SM CLR 32/23 A3001 A02 26
METAR KSNC 281557Z AUTO 32006KT 0` 9 0SM " CLR" 31/22 AMM A02 25
METAR KSNC 201459Z AUTO 34006KT 9SM CLR 31/22 A3004 A02 24
METAR KSNC 201356Z AUTO 29003KT "( 9 `SM 0 ( CLR 29/22 A3005 A02 23
METAR KSNC 192056Z AUTO 22008KT 10+SM OVC021 21/17 A3011 A02 22
METAR KSNC 192056Z AUTO MMMMMKT 10SM FEW016 OVC021 21/17 A3012 A02 21
METAR KSNC 191956Z AUTO 22007KT 10SM OVC018 21/17 A3013 A02 20
METAR KSNC 191856Z AUTO 20007KT 10SM OVC014 20/16 A3014 A02 19
METAR KSNC 191756Z AUTO 20007KT 10+SM OVC014 19/16 A3014 A02 18
METAR KSNC 191656Z AUTO 20007G #x9:>01 19KT 180V240 10+SM ! 0 "OVC016 $L&HHC$0>0119 JUN 12 19/16 A3015 A02 17
METAR KSNC 191556Z AUTO 22006KT 9SM BKN016 OVC034 20/15 A3016 A02 16
METAR KSNC 191456Z AUTO 2500G$KT 0 " 10 "SM BKN012 OVC023 M #X20:>0119 JUN(12 18/14 A3018 A02 P000 15
METAR KSNC 182056Z AUTO 16006KT 10+SM CLR 19/11 A3014 A02 14
METAR KSNC 181959Z AUTO 14006KT 10SM FEW028 20/11 A3015 A02 13
METAR KSNC 181856Z AUTO 22007KT 9SM CLR 20/11 A3015 A02 12
METAR KSNC 181756Z AUTO 17007KT 10SM SCT026 20/12 A3015 A02 11
METAR KSNC 181656Z AUTO 19008KT 9SM FEW030 SCT042 21/12 A3017 A02 10
METAR KSNC 181556Z AUTO 24002KT 8SM BKN029 19/11 A3015 A02 9
METAR KSNC 181456Z AUTO 17005KT 10+SM FEW025 19/11 A3016 A02 8
METAR KSNC 181356Z AUTO 16003KT 9SM OVC021 17/11 A3016 A02 7
METAR KSNC 172056Z AUTO 17006KT 10SM CLR 19/09 A3015 A02 6
METAR KSNC 171956Z AUTO 17009KT 110V180 10+SM CLR 19/09 A3017 A02 5
METAR KSNC 171856Z AUTO 18010KT 10SM SCT027 BKN032 19/11 A3018 A02 4
METAR KSNC 171756Z AUTO 18009KT 140V200 9SM CLR 19/11 A3019 A02 3
METAR KSNC 171656Z AUTO 19009KT 10SM FEW032 20/11 A3020 A02 2
METAR KSNC 171556Z AUTO 19004KT 10SM FEW032 FEW095 19/09 A3021 A02 1
METAR KSNC 171456Z AUTO 03003KT 10SM CLR 18/10 A3023 A02 0
METAR KSNC 162056Z AUTO 18009KT 10+SM ( SCT060 19/16 A3028 A02 99
METAR KSNC 161956Z AUTO 15007KT 10SM SCT060 20/14 A3028 A02 98
METAR KSNC 161956Z AUTO 17008KT 10SM SCT060 20/14 A3028 A02 97
METAR KSNC 161856Z AUTO 12006KT 10SM FEW060 22/14 A3029 A02 96
METAR KSNC 161756Z AUTO 14008KT 110V170 10SM ! CLR ( 22/14 A3030 A02 95
METAR KSNC 161656Z AUTO 13010KT 10SM FEW044 FEW060 22/13 A3031 A02 94
METAR KSNC 161556Z AUTO 07003KT 10+SM FEW050 23/10 A3032 A02 93
METAR KSNC 161456Z AUTO 03009KT 10+SM CLR 23/11 A3032 A02 92
METAR KSNC 161356Z AUTO 01004KT 9SM CLR 22/11 A3033 A02 91
METAR KSNC 152056Z AUTO 16005KT 10SM FEW055 23/13 A3028 A02 90
METAR KSNC 151957Z AUTO 07007KT 10SM CLR 24/08 A3028 A02 89
METAR KSNC 151856Z AUTO 09011KT $0 "90 "(SM CLR 0 24/07 A3028 A02 88
METAR KSNC 151756Z AUTO 06008KT 10+SM CLR 24/07 A3029 A02 87
METAR KSNC 151656Z AUTO 06007G15KT 10SM CLR 24/07 A3029 A02 86
METAR KSNC 151556Z AUTO 07012G14KT 020V100 10SM CLR 23/07 A3030 A02 85
METAR KSNC 151456Z AUTO 06006KT 10SM CLR 23/07 A3030 A02 84
METAR KSNC 142056Z AUTO 05008KT 10+SM BKN049 23/13 A3022 A02 83
METAR KSNC 141956Z AUTO 10010G(KT 10 "SM BKN049 23/14 A3022 A02 82
METAR KSNC 141857Z AUTO 03007KT 10SM FEW033 BKN043 21/14 A3023 A02 81
METAR KSNC 141756Z AUTO 06012KT 10SM SCT028 BKN046 22/14 A3023 A02 80
METAR KSNC 141656Z AUTO 07009KT 030V090 10SM BKN025 OVK028 20/15 A3024 A02 79
METAR KSNC 141556Z AUTO 08004KT 10+SM BKN024 BKN035 20/14 A3023 A02 78
METAR KSNC 141456Z AUTO 08007G16KT 10+SM OVC025 19/14 A3022 A02 77
METAR KSNC 141356Z AUTO 07011G16KT 040V100 10+SM BKN025 19/14 A3021 A02 76
METAR KSNC 141356Z AUTO 09007G16KT 10+SM BKN023 19/14 A3021 A02 75
METAR KSNC 132056Z AUTO 09003KT 3SM -DZ SCT005 OVC011 18/18 A3003 A02 74
METAR KSNC 131859Z AUTO 14002KT 6SM BKN006!BKN010 OVC037 18/18 A3409 A02 P0037 73
METAR KSNC 131756Z AUTO 12004G(KT ( ( 1-1/4 "SM OVC403 0 18/18 AMM A02 P0001 72
METAR KSNC 131656Z AUTO 08005KT 1-1/4SM -DZ OVC003 17/17 A2999 A02 71
METAR KSNC 131556Z AUTO MMMMMKT 5 "SM OVC006 18/17 A2999 A02 70
METAR KSNC 131456Z AUTO 15003KT 10SM OVC006 18/18 A2998 A02 69
METAR KSNC 131356Z AUTO 18006KT 1-1/4SM -RA OVC004 17/17 A2998 A02 68
METAR KSNC 131256Z AUTO 17005KT 3SM BR OVC003 17/17 A2997 A02 67
METAR KSNC 131156Z AUTO 15007KT 7SM OVC002 18/18 A2995 A02 P0002 66
METAR KSNC 131056Z AUTO 18004KT 2-1/2SM -DZ OVC001 18/18 A2995 A02 P0009 65
METAR KSNC 130956Z AUTO 16003KT 3/4SM RA OVC001 18/18 A2994 A02 P0020 64
METAR KSNC 130856Z AUTO 18004KT 2-1/2SM RA OVC002 18/18 A2993 A02 P0026 63
METAR KSNC 130756Z AUTO 16005KT 3SM RA OVC002 18/18 A2991 A02 P0021 62